FJL78R OPKC-OPIS
Flight info
| Callsign | FJL78R |
|---|---|
| Flight time | 1h 28m |
| Altitude | 37000 |
| Route | BADUL B466 NH Z301 BELKO |
| Aircraft | A320/M-SDE3FGHIRWY/LB1 |
Departure
| Time | 2026-04-29 21:35 |
|---|---|
| Airport | Jinnah International Airport (OPKC) |
Arrival
| Time | 2026-04-29 23:04 |
|---|---|
| Airport | Islamabad International Airport (OPIS) |
| Time | Latitude | Longitude | Altitude | Speed | Heading |
|---|---|---|---|---|---|
| 2026-04-29 21:16 | 24.90230 | 67.16582 | 101 ft | 0 kts | 164° |
| 2026-04-29 21:26 | 24.90241 | 67.16579 | 100 ft | 3 kts | 163° |
| 2026-04-29 21:27 | 24.90262 | 67.16572 | 99 ft | 3 kts | 161° |
| 2026-04-29 21:27 | 24.90282 | 67.16563 | 100 ft | 3 kts | 156° |
| 2026-04-29 21:27 | 24.90302 | 67.16553 | 100 ft | 3 kts | 145° |
| 2026-04-29 21:27 | 24.90317 | 67.16538 | 101 ft | 3 kts | 111° |
| 2026-04-29 21:28 | 24.90320 | 67.16525 | 101 ft | 0 kts | 74° |
| 2026-04-29 21:30 | 24.90329 | 67.16560 | 100 ft | 14 kts | 74° |
| 2026-04-29 21:30 | 24.90368 | 67.16681 | 101 ft | 16 kts | 50° |
| 2026-04-29 21:30 | 24.90461 | 67.16704 | 102 ft | 13 kts | 28° |
| 2026-04-29 21:30 | 24.90498 | 67.16785 | 100 ft | 11 kts | 74° |
| 2026-04-29 21:31 | 24.90519 | 67.16864 | 102 ft | 10 kts | 74° |
| 2026-04-29 21:31 | 24.90538 | 67.16935 | 102 ft | 11 kts | 74° |
| 2026-04-29 21:31 | 24.90566 | 67.17053 | 102 ft | 18 kts | 76° |
| 2026-04-29 21:31 | 24.90599 | 67.17177 | 101 ft | 16 kts | 74° |
| 2026-04-29 21:32 | 24.90628 | 67.17289 | 101 ft | 14 kts | 74° |
| 2026-04-29 21:32 | 24.90665 | 67.17390 | 102 ft | 17 kts | 56° |
| 2026-04-29 21:32 | 24.90768 | 67.17479 | 104 ft | 19 kts | 29° |
| 2026-04-29 21:32 | 24.90865 | 67.17448 | 106 ft | 14 kts | 281° |
| 2026-04-29 21:33 | 24.90855 | 67.17402 | 107 ft | 0 kts | 256° |
| 2026-04-29 21:34 | 24.90852 | 67.17386 | 107 ft | 12 kts | 255° |
| 2026-04-29 21:34 | 24.90754 | 67.17002 | 107 ft | 88 kts | 255° |
| 2026-04-29 21:35 | 24.90534 | 67.16128 | 105 ft | 145 kts | 255° |
| 2026-04-29 21:35 | 24.90234 | 67.14932 | 420 ft | 166 kts | 256° |
| 2026-04-29 21:35 | 24.90000 | 67.13689 | 1120 ft | 163 kts | 273° |
| 2026-04-29 21:35 | 24.90421 | 67.12551 | 1740 ft | 172 kts | 312° |
| 2026-04-29 21:36 | 24.91593 | 67.11998 | 1997 ft | 205 kts | 353° |
| 2026-04-29 21:36 | 24.93054 | 67.12540 | 2239 ft | 244 kts | 31° |
| 2026-04-29 21:36 | 24.94354 | 67.13879 | 2681 ft | 266 kts | 45° |
| 2026-04-29 21:36 | 24.95516 | 67.15472 | 3337 ft | 273 kts | 50° |
| 2026-04-29 21:37 | 24.96653 | 67.17163 | 4116 ft | 275 kts | 51° |
| 2026-04-29 21:37 | 24.97800 | 67.18858 | 4925 ft | 276 kts | 50° |
| 2026-04-29 21:37 | 24.98973 | 67.20538 | 5735 ft | 277 kts | 49° |
| 2026-04-29 21:37 | 25.00171 | 67.22205 | 6535 ft | 278 kts | 48° |
| 2026-04-29 21:38 | 25.01432 | 67.23912 | 6982 ft | 295 kts | 48° |
| 2026-04-29 21:38 | 25.02751 | 67.25671 | 7681 ft | 299 kts | 48° |
| 2026-04-29 21:38 | 25.04084 | 67.27440 | 8510 ft | 300 kts | 49° |
| 2026-04-29 21:38 | 25.05422 | 67.29214 | 9346 ft | 301 kts | 49° |
| 2026-04-29 21:39 | 25.06774 | 67.31002 | 9988 ft | 310 kts | 49° |
| 2026-04-29 21:39 | 25.08210 | 67.32896 | 10191 ft | 333 kts | 49° |
| 2026-04-29 21:39 | 25.09733 | 67.34905 | 10605 ft | 346 kts | 48° |
| 2026-04-29 21:39 | 25.11450 | 67.36785 | 11213 ft | 350 kts | 38° |
| 2026-04-29 21:40 | 25.13327 | 67.38519 | 11883 ft | 354 kts | 38° |
| 2026-04-29 21:40 | 25.15226 | 67.40271 | 12571 ft | 357 kts | 38° |
| 2026-04-29 21:40 | 25.17143 | 67.42038 | 13252 ft | 361 kts | 37° |
| 2026-04-29 21:40 | 25.19059 | 67.43804 | 13860 ft | 365 kts | 37° |
| 2026-04-29 21:41 | 25.21013 | 67.45610 | 14450 ft | 368 kts | 37° |
| 2026-04-29 21:41 | 25.22986 | 67.47436 | 15050 ft | 371 kts | 36° |
| 2026-04-29 21:41 | 25.24977 | 67.49270 | 15669 ft | 374 kts | 36° |
| 2026-04-29 21:41 | 25.26991 | 67.51112 | 16284 ft | 377 kts | 35° |
| 2026-04-29 21:42 | 25.29025 | 67.52968 | 16888 ft | 381 kts | 34° |
| 2026-04-29 21:42 | 25.31076 | 67.54838 | 17494 ft | 384 kts | 34° |
| 2026-04-29 21:42 | 25.33149 | 67.56728 | 18050 ft | 388 kts | 34° |
| 2026-04-29 21:42 | 25.35209 | 67.58611 | 18544 ft | 391 kts | 34° |
| 2026-04-29 21:43 | 25.37317 | 67.60540 | 19050 ft | 395 kts | 33° |
| 2026-04-29 21:43 | 25.39445 | 67.62487 | 19559 ft | 398 kts | 34° |
| 2026-04-29 21:43 | 25.41594 | 67.64454 | 20039 ft | 402 kts | 34° |
| 2026-04-29 21:43 | 25.43760 | 67.66437 | 20537 ft | 405 kts | 34° |
| 2026-04-29 21:44 | 25.45938 | 67.68434 | 21017 ft | 409 kts | 34° |
| 2026-04-29 21:44 | 25.48132 | 67.70449 | 21484 ft | 412 kts | 33° |
| 2026-04-29 21:44 | 25.50343 | 67.72483 | 21967 ft | 415 kts | 33° |
| 2026-04-29 21:44 | 25.52573 | 67.74535 | 22452 ft | 418 kts | 33° |
| 2026-04-29 21:45 | 25.54817 | 67.76600 | 22932 ft | 421 kts | 33° |
| 2026-04-29 21:45 | 25.57078 | 67.78681 | 23364 ft | 424 kts | 33° |
| 2026-04-29 21:45 | 25.59354 | 67.80777 | 23742 ft | 427 kts | 33° |
| 2026-04-29 21:45 | 25.61643 | 67.82886 | 24120 ft | 429 kts | 33° |
| 2026-04-29 21:46 | 25.63944 | 67.85009 | 24519 ft | 431 kts | 33° |
| 2026-04-29 21:46 | 25.66226 | 67.87116 | 24909 ft | 433 kts | 33° |
| 2026-04-29 21:46 | 25.68548 | 67.89261 | 25297 ft | 435 kts | 33° |
| 2026-04-29 21:46 | 25.70879 | 67.91410 | 25674 ft | 437 kts | 33° |
| 2026-04-29 21:47 | 25.73222 | 67.93566 | 26041 ft | 439 kts | 33° |
| 2026-04-29 21:47 | 25.75575 | 67.95736 | 26379 ft | 441 kts | 33° |
| 2026-04-29 21:47 | 25.77934 | 67.97914 | 26716 ft | 443 kts | 33° |
| 2026-04-29 21:47 | 25.80313 | 68.00110 | 27062 ft | 445 kts | 33° |
| 2026-04-29 21:48 | 25.82696 | 68.02313 | 27394 ft | 447 kts | 33° |
| 2026-04-29 21:48 | 25.85095 | 68.04533 | 27733 ft | 449 kts | 32° |
| 2026-04-29 21:48 | 25.87503 | 68.06761 | 28054 ft | 452 kts | 32° |
| 2026-04-29 21:48 | 25.89920 | 68.09000 | 28387 ft | 454 kts | 32° |
| 2026-04-29 21:49 | 25.92347 | 68.11252 | 28696 ft | 456 kts | 32° |
| 2026-04-29 21:49 | 25.94786 | 68.13514 | 29005 ft | 458 kts | 32° |
| 2026-04-29 21:49 | 25.97238 | 68.15792 | 29305 ft | 460 kts | 32° |
| 2026-04-29 21:49 | 25.99700 | 68.18078 | 29596 ft | 462 kts | 32° |
| 2026-04-29 21:50 | 26.02168 | 68.20369 | 29855 ft | 463 kts | 32° |
| 2026-04-29 21:50 | 26.04646 | 68.22670 | 30087 ft | 465 kts | 32° |
| 2026-04-29 21:50 | 26.07130 | 68.24981 | 30314 ft | 467 kts | 32° |
| 2026-04-29 21:50 | 26.09597 | 68.27278 | 30516 ft | 469 kts | 32° |
| 2026-04-29 21:51 | 26.12102 | 68.29610 | 30718 ft | 471 kts | 32° |
| 2026-04-29 21:51 | 26.14622 | 68.31956 | 30916 ft | 473 kts | 32° |
| 2026-04-29 21:51 | 26.19681 | 68.36674 | 31416 ft | 474 kts | 32° |
| 2026-04-29 21:52 | 26.22302 | 68.38847 | 31683 ft | 466 kts | 24° |
| 2026-04-29 21:52 | 26.25111 | 68.40595 | 31949 ft | 461 kts | 20° |
| 2026-04-29 21:52 | 26.27947 | 68.42275 | 32228 ft | 462 kts | 20° |
| 2026-04-29 21:52 | 26.30783 | 68.43954 | 32510 ft | 462 kts | 20° |
| 2026-04-29 21:53 | 26.33619 | 68.45632 | 32792 ft | 462 kts | 20° |
| 2026-04-29 21:53 | 26.36456 | 68.47314 | 33081 ft | 462 kts | 20° |
| 2026-04-29 21:53 | 26.39296 | 68.49000 | 33377 ft | 462 kts | 20° |
| 2026-04-29 21:53 | 26.42130 | 68.50687 | 33655 ft | 463 kts | 20° |
| 2026-04-29 21:54 | 26.44979 | 68.52385 | 33893 ft | 463 kts | 20° |
| 2026-04-29 21:54 | 26.47821 | 68.54080 | 34185 ft | 462 kts | 20° |
| 2026-04-29 21:54 | 26.50609 | 68.55745 | 34487 ft | 460 kts | 20° |
| 2026-04-29 21:54 | 26.53430 | 68.57431 | 34754 ft | 459 kts | 20° |
| 2026-04-29 21:55 | 26.56245 | 68.59111 | 35007 ft | 459 kts | 20° |
| 2026-04-29 21:55 | 26.59057 | 68.60787 | 35254 ft | 458 kts | 20° |
| 2026-04-29 21:55 | 26.61870 | 68.62465 | 35494 ft | 458 kts | 20° |
| 2026-04-29 21:55 | 26.64677 | 68.64140 | 35731 ft | 457 kts | 20° |
| 2026-04-29 21:56 | 26.67480 | 68.65813 | 35953 ft | 457 kts | 20° |
| 2026-04-29 21:56 | 26.70284 | 68.67486 | 36178 ft | 457 kts | 20° |
| 2026-04-29 21:56 | 26.73085 | 68.69157 | 36400 ft | 456 kts | 20° |
| 2026-04-29 21:56 | 26.75887 | 68.70832 | 36574 ft | 457 kts | 20° |
| 2026-04-29 21:57 | 26.81487 | 68.74181 | 36624 ft | 459 kts | 20° |
| 2026-04-29 21:57 | 26.87186 | 68.77576 | 36623 ft | 469 kts | 20° |
| 2026-04-29 21:58 | 26.92988 | 68.81049 | 36626 ft | 475 kts | 21° |
| 2026-04-29 21:58 | 26.98784 | 68.84532 | 36627 ft | 476 kts | 21° |
| 2026-04-29 21:59 | 27.04612 | 68.88041 | 36623 ft | 474 kts | 20° |
| 2026-04-29 21:59 | 27.10421 | 68.91532 | 36628 ft | 473 kts | 20° |
| 2026-04-29 22:00 | 27.16225 | 68.95011 | 36629 ft | 473 kts | 20° |
| 2026-04-29 22:00 | 27.22021 | 68.98507 | 36631 ft | 473 kts | 20° |
| 2026-04-29 22:01 | 27.27783 | 69.01991 | 36627 ft | 473 kts | 20° |
| 2026-04-29 22:01 | 27.33587 | 69.05498 | 36645 ft | 473 kts | 20° |
| 2026-04-29 22:02 | 27.39394 | 69.09012 | 36634 ft | 474 kts | 20° |
| 2026-04-29 22:02 | 27.45207 | 69.12531 | 36627 ft | 475 kts | 20° |
| 2026-04-29 22:03 | 27.51037 | 69.16048 | 36623 ft | 475 kts | 20° |
| 2026-04-29 22:03 | 27.56867 | 69.19573 | 36632 ft | 475 kts | 20° |
| 2026-04-29 22:04 | 27.62688 | 69.23107 | 36638 ft | 475 kts | 20° |
| 2026-04-29 22:04 | 27.68505 | 69.26637 | 36648 ft | 475 kts | 20° |
| 2026-04-29 22:05 | 27.74286 | 69.30146 | 36643 ft | 475 kts | 20° |
| 2026-04-29 22:06 | 27.83055 | 69.35486 | 36637 ft | 475 kts | 20° |
| 2026-04-29 22:06 | 27.88833 | 69.39001 | 36637 ft | 475 kts | 20° |
| 2026-04-29 22:07 | 27.94665 | 69.42556 | 36642 ft | 475 kts | 20° |
| 2026-04-29 22:07 | 28.00491 | 69.46115 | 36641 ft | 476 kts | 20° |
| 2026-04-29 22:08 | 28.06323 | 69.49682 | 36641 ft | 476 kts | 20° |
| 2026-04-29 22:08 | 28.12146 | 69.53256 | 36658 ft | 476 kts | 20° |
| 2026-04-29 22:09 | 28.17935 | 69.56810 | 36655 ft | 476 kts | 20° |
| 2026-04-29 22:09 | 28.23758 | 69.60376 | 36651 ft | 475 kts | 20° |
| 2026-04-29 22:10 | 28.29562 | 69.63943 | 36660 ft | 474 kts | 20° |
| 2026-04-29 22:10 | 28.35355 | 69.67518 | 36651 ft | 473 kts | 20° |
| 2026-04-29 22:11 | 28.40165 | 69.70487 | 36647 ft | 473 kts | 20° |
| 2026-04-29 22:11 | 28.45949 | 69.74050 | 36644 ft | 472 kts | 20° |
| 2026-04-29 22:12 | 28.51725 | 69.77608 | 36644 ft | 472 kts | 20° |
| 2026-04-29 22:12 | 28.57517 | 69.81173 | 36657 ft | 472 kts | 19° |
| 2026-04-29 22:13 | 28.63318 | 69.84664 | 36652 ft | 471 kts | 19° |
| 2026-04-29 22:13 | 28.69119 | 69.88128 | 36662 ft | 470 kts | 18° |
| 2026-04-29 22:14 | 28.74872 | 69.91573 | 36659 ft | 470 kts | 19° |
| 2026-04-29 22:14 | 28.80655 | 69.95065 | 36654 ft | 470 kts | 19° |
| 2026-04-29 22:15 | 28.86419 | 69.98562 | 36657 ft | 469 kts | 19° |
| 2026-04-29 22:15 | 28.92192 | 70.02066 | 36661 ft | 470 kts | 18° |
| 2026-04-29 22:16 | 28.97965 | 70.05561 | 36658 ft | 470 kts | 18° |
| 2026-04-29 22:16 | 29.03740 | 70.09059 | 36657 ft | 470 kts | 18° |
| 2026-04-29 22:17 | 29.09518 | 70.12568 | 36654 ft | 470 kts | 18° |
| 2026-04-29 22:17 | 29.15256 | 70.16063 | 36654 ft | 470 kts | 19° |
| 2026-04-29 22:18 | 29.21032 | 70.19587 | 36669 ft | 470 kts | 18° |
| 2026-04-29 22:18 | 29.26803 | 70.23116 | 36677 ft | 470 kts | 18° |
| 2026-04-29 22:19 | 29.32572 | 70.26642 | 36669 ft | 469 kts | 18° |
| 2026-04-29 22:19 | 29.38332 | 70.30157 | 36673 ft | 469 kts | 18° |
| 2026-04-29 22:20 | 29.44085 | 70.33677 | 36666 ft | 469 kts | 18° |
| 2026-04-29 22:20 | 29.49838 | 70.37206 | 36689 ft | 469 kts | 18° |
| 2026-04-29 22:21 | 29.55586 | 70.40729 | 36677 ft | 468 kts | 18° |
| 2026-04-29 22:21 | 29.61333 | 70.44251 | 36675 ft | 468 kts | 18° |
| 2026-04-29 22:22 | 29.67065 | 70.47782 | 36669 ft | 467 kts | 18° |
| 2026-04-29 22:22 | 29.72750 | 70.51299 | 36671 ft | 467 kts | 18° |
| 2026-04-29 22:23 | 29.78476 | 70.54841 | 36696 ft | 467 kts | 18° |
| 2026-04-29 22:23 | 29.84199 | 70.58373 | 36685 ft | 467 kts | 18° |
| 2026-04-29 22:24 | 29.89929 | 70.61914 | 36683 ft | 467 kts | 18° |
| 2026-04-29 22:24 | 29.95657 | 70.65461 | 36684 ft | 467 kts | 18° |
| 2026-04-29 22:25 | 30.01388 | 70.69012 | 36682 ft | 467 kts | 18° |
| 2026-04-29 22:25 | 30.07113 | 70.72572 | 36721 ft | 467 kts | 18° |
| 2026-04-29 22:26 | 30.12831 | 70.76135 | 36676 ft | 466 kts | 18° |
| 2026-04-29 22:26 | 30.18549 | 70.79695 | 36673 ft | 467 kts | 18° |
| 2026-04-29 22:27 | 30.24238 | 70.83209 | 36685 ft | 466 kts | 17° |
| 2026-04-29 22:27 | 30.30041 | 70.86503 | 36686 ft | 464 kts | 15° |
| 2026-04-29 22:28 | 30.35876 | 70.89695 | 36702 ft | 464 kts | 15° |
| 2026-04-29 22:28 | 30.41700 | 70.92936 | 36705 ft | 465 kts | 15° |
| 2026-04-29 22:29 | 30.47522 | 70.96240 | 36701 ft | 466 kts | 16° |
| 2026-04-29 22:29 | 30.53311 | 70.99535 | 36697 ft | 466 kts | 16° |
| 2026-04-29 22:30 | 30.59128 | 71.02839 | 36694 ft | 467 kts | 16° |
| 2026-04-29 22:30 | 30.64933 | 71.06130 | 36680 ft | 465 kts | 15° |
| 2026-04-29 22:31 | 30.70741 | 71.09429 | 36680 ft | 465 kts | 15° |
| 2026-04-29 22:31 | 30.76543 | 71.12744 | 36679 ft | 465 kts | 16° |
| 2026-04-29 22:32 | 30.82306 | 71.16037 | 36687 ft | 464 kts | 15° |
| 2026-04-29 22:32 | 30.88113 | 71.19341 | 36686 ft | 464 kts | 15° |
| 2026-04-29 22:33 | 30.93919 | 71.22650 | 36697 ft | 465 kts | 15° |
| 2026-04-29 22:33 | 30.99728 | 71.25983 | 36717 ft | 465 kts | 16° |
| 2026-04-29 22:34 | 31.05539 | 71.29318 | 36715 ft | 465 kts | 15° |
| 2026-04-29 22:34 | 31.11354 | 71.32650 | 36709 ft | 466 kts | 15° |
| 2026-04-29 22:35 | 31.17173 | 71.36002 | 36712 ft | 466 kts | 16° |
| 2026-04-29 22:35 | 31.22992 | 71.39361 | 36714 ft | 467 kts | 16° |
| 2026-04-29 22:36 | 31.28819 | 71.42718 | 36733 ft | 467 kts | 15° |
| 2026-04-29 22:36 | 31.34616 | 71.46047 | 36725 ft | 467 kts | 15° |
| 2026-04-29 22:37 | 31.40456 | 71.49413 | 36723 ft | 468 kts | 16° |
| 2026-04-29 22:37 | 31.46301 | 71.52793 | 36721 ft | 468 kts | 16° |
| 2026-04-29 22:38 | 31.52141 | 71.56183 | 36732 ft | 468 kts | 16° |
| 2026-04-29 22:38 | 31.57986 | 71.59582 | 36712 ft | 468 kts | 16° |
| 2026-04-29 22:39 | 31.63826 | 71.62971 | 36705 ft | 469 kts | 16° |
| 2026-04-29 22:39 | 31.69678 | 71.66386 | 36705 ft | 470 kts | 16° |
| 2026-04-29 22:40 | 31.75531 | 71.69805 | 36706 ft | 470 kts | 16° |
| 2026-04-29 22:40 | 31.81394 | 71.73223 | 36716 ft | 470 kts | 16° |
| 2026-04-29 22:41 | 31.87220 | 71.76619 | 36731 ft | 471 kts | 17° |
| 2026-04-29 22:41 | 31.93089 | 71.80049 | 36727 ft | 471 kts | 17° |
| 2026-04-29 22:42 | 31.98970 | 71.83491 | 36728 ft | 472 kts | 17° |
| 2026-04-29 22:42 | 32.04841 | 71.86947 | 36730 ft | 472 kts | 17° |
| 2026-04-29 22:43 | 32.10717 | 71.90412 | 36752 ft | 472 kts | 17° |
| 2026-04-29 22:43 | 32.16603 | 71.93880 | 36733 ft | 472 kts | 17° |
| 2026-04-29 22:44 | 32.22490 | 71.97342 | 36730 ft | 473 kts | 17° |
| 2026-04-29 22:44 | 32.28341 | 72.00790 | 36708 ft | 472 kts | 17° |
| 2026-04-29 22:44 | 32.31261 | 72.02523 | 36183 ft | 468 kts | 17° |
| 2026-04-29 22:45 | 32.34192 | 72.04259 | 35267 ft | 473 kts | 18° |
| 2026-04-29 22:45 | 32.37147 | 72.06006 | 34386 ft | 477 kts | 18° |
| 2026-04-29 22:45 | 32.40112 | 72.07760 | 33790 ft | 475 kts | 19° |
| 2026-04-29 22:45 | 32.43065 | 72.09515 | 33045 ft | 474 kts | 20° |
| 2026-04-29 22:46 | 32.45989 | 72.11280 | 32438 ft | 471 kts | 23° |
| 2026-04-29 22:46 | 32.48728 | 72.13443 | 31809 ft | 474 kts | 31° |
| 2026-04-29 22:46 | 32.51371 | 72.15758 | 31177 ft | 472 kts | 32° |
| 2026-04-29 22:46 | 32.54003 | 72.18065 | 30546 ft | 469 kts | 33° |
| 2026-04-29 22:47 | 32.56627 | 72.20360 | 29917 ft | 468 kts | 33° |
| 2026-04-29 22:47 | 32.59244 | 72.22643 | 29235 ft | 466 kts | 33° |
| 2026-04-29 22:47 | 32.61842 | 72.24909 | 28634 ft | 461 kts | 34° |
| 2026-04-29 22:47 | 32.64394 | 72.27141 | 28049 ft | 457 kts | 34° |
| 2026-04-29 22:48 | 32.66932 | 72.29364 | 27521 ft | 451 kts | 34° |
| 2026-04-29 22:48 | 32.69446 | 72.31565 | 26946 ft | 446 kts | 34° |
| 2026-04-29 22:48 | 32.71927 | 72.33739 | 26357 ft | 442 kts | 34° |
| 2026-04-29 22:48 | 32.74382 | 72.35894 | 25851 ft | 436 kts | 34° |
| 2026-04-29 22:49 | 32.76813 | 72.38028 | 25351 ft | 431 kts | 34° |
| 2026-04-29 22:49 | 32.79213 | 72.40135 | 24794 ft | 427 kts | 34° |
| 2026-04-29 22:49 | 32.81588 | 72.42226 | 24206 ft | 421 kts | 35° |
| 2026-04-29 22:49 | 32.83899 | 72.44265 | 23604 ft | 406 kts | 35° |
| 2026-04-29 22:50 | 32.86152 | 72.46253 | 23048 ft | 402 kts | 35° |
| 2026-04-29 22:50 | 32.88398 | 72.48228 | 22480 ft | 399 kts | 35° |
| 2026-04-29 22:50 | 32.90621 | 72.50180 | 21940 ft | 396 kts | 35° |
| 2026-04-29 22:50 | 32.92802 | 72.52096 | 21405 ft | 393 kts | 35° |
| 2026-04-29 22:51 | 32.94998 | 72.54028 | 20863 ft | 391 kts | 34° |
| 2026-04-29 22:51 | 32.97180 | 72.55953 | 20324 ft | 389 kts | 34° |
| 2026-04-29 22:51 | 33.01510 | 72.59795 | 19249 ft | 387 kts | 35° |
| 2026-04-29 22:52 | 33.03650 | 72.61703 | 18826 ft | 382 kts | 36° |
| 2026-04-29 22:52 | 33.05586 | 72.63884 | 18364 ft | 382 kts | 48° |
| 2026-04-29 22:52 | 33.07245 | 72.66323 | 17851 ft | 375 kts | 49° |
| 2026-04-29 22:52 | 33.08877 | 72.68721 | 17103 ft | 367 kts | 49° |
| 2026-04-29 22:53 | 33.10452 | 72.71037 | 16632 ft | 352 kts | 49° |
| 2026-04-29 22:53 | 33.11966 | 72.73263 | 16173 ft | 339 kts | 48° |
| 2026-04-29 22:53 | 33.13425 | 72.75411 | 15721 ft | 329 kts | 48° |
| 2026-04-29 22:53 | 33.14844 | 72.77502 | 15290 ft | 319 kts | 48° |
| 2026-04-29 22:54 | 33.16236 | 72.79554 | 14870 ft | 317 kts | 47° |
| 2026-04-29 22:54 | 33.17621 | 72.81596 | 14422 ft | 316 kts | 47° |
| 2026-04-29 22:54 | 33.19013 | 72.83644 | 14007 ft | 319 kts | 47° |
| 2026-04-29 22:54 | 33.20424 | 72.85721 | 13570 ft | 323 kts | 47° |
| 2026-04-29 22:55 | 33.21842 | 72.87813 | 13087 ft | 325 kts | 47° |
| 2026-04-29 22:55 | 33.23242 | 72.89887 | 12742 ft | 323 kts | 47° |
| 2026-04-29 22:55 | 33.24640 | 72.91960 | 12437 ft | 320 kts | 47° |
| 2026-04-29 22:55 | 33.26034 | 72.94031 | 12002 ft | 320 kts | 48° |
| 2026-04-29 22:56 | 33.27435 | 72.96110 | 11558 ft | 322 kts | 48° |
| 2026-04-29 22:56 | 33.28844 | 72.98199 | 11091 ft | 323 kts | 48° |
| 2026-04-29 22:56 | 33.30256 | 73.00291 | 10613 ft | 324 kts | 49° |
| 2026-04-29 22:56 | 33.31671 | 73.02392 | 10167 ft | 325 kts | 49° |
| 2026-04-29 22:57 | 33.33064 | 73.04465 | 10007 ft | 314 kts | 49° |
| 2026-04-29 22:57 | 33.34407 | 73.06464 | 9866 ft | 304 kts | 49° |
| 2026-04-29 22:57 | 33.35716 | 73.08414 | 9467 ft | 298 kts | 49° |
| 2026-04-29 22:57 | 33.37006 | 73.10336 | 8822 ft | 294 kts | 49° |
| 2026-04-29 22:58 | 33.38244 | 73.12177 | 8645 ft | 273 kts | 48° |
| 2026-04-29 22:58 | 33.39643 | 73.13563 | 8309 ft | 256 kts | 22° |
| 2026-04-29 22:58 | 33.41332 | 73.13975 | 7887 ft | 245 kts | 354° |
| 2026-04-29 22:58 | 33.42940 | 73.13407 | 7508 ft | 244 kts | 329° |
| 2026-04-29 22:59 | 33.44256 | 73.12118 | 7140 ft | 246 kts | 318° |
| 2026-04-29 22:59 | 33.45516 | 73.10729 | 6781 ft | 247 kts | 318° |
| 2026-04-29 22:59 | 33.46781 | 73.09331 | 6449 ft | 248 kts | 318° |
| 2026-04-29 22:59 | 33.48043 | 73.07937 | 6115 ft | 247 kts | 318° |
| 2026-04-29 23:00 | 33.49298 | 73.06550 | 5711 ft | 250 kts | 319° |
| 2026-04-29 23:00 | 33.50552 | 73.05142 | 5318 ft | 243 kts | 314° |
| 2026-04-29 23:00 | 33.51464 | 73.03481 | 4980 ft | 237 kts | 293° |
| 2026-04-29 23:00 | 33.51971 | 73.01614 | 4543 ft | 235 kts | 285° |
| 2026-04-29 23:01 | 33.52304 | 72.99729 | 4221 ft | 228 kts | 282° |
| 2026-04-29 23:01 | 33.52590 | 72.97901 | 3924 ft | 220 kts | 282° |
| 2026-04-29 23:01 | 33.52869 | 72.96122 | 3666 ft | 214 kts | 282° |
| 2026-04-29 23:01 | 33.53140 | 72.94405 | 3381 ft | 206 kts | 282° |
| 2026-04-29 23:02 | 33.53402 | 72.92744 | 3115 ft | 199 kts | 283° |
| 2026-04-29 23:02 | 33.53654 | 72.91147 | 2871 ft | 187 kts | 283° |
| 2026-04-29 23:02 | 33.53880 | 72.89701 | 2645 ft | 165 kts | 283° |
| 2026-04-29 23:02 | 33.54083 | 72.88416 | 2431 ft | 149 kts | 282° |
| 2026-04-29 23:03 | 33.54270 | 72.87227 | 2228 ft | 142 kts | 282° |
| 2026-04-29 23:03 | 33.54461 | 72.86069 | 2056 ft | 141 kts | 281° |
| 2026-04-29 23:03 | 33.54637 | 72.84911 | 1875 ft | 141 kts | 280° |
| 2026-04-29 23:03 | 33.54809 | 72.83786 | 1769 ft | 125 kts | 281° |
| 2026-04-29 23:04 | 33.54940 | 72.82959 | 1761 ft | 76 kts | 281° |
| 2026-04-29 23:04 | 33.55004 | 72.82544 | 1759 ft | 29 kts | 280° |
| 2026-04-29 23:04 | 33.55058 | 72.82448 | 1761 ft | 7 kts | 11° |
| 2026-04-29 23:04 | 33.55080 | 72.82453 | 1764 ft | 0 kts | 11° |
| 2026-04-29 23:05 | 33.55106 | 72.82459 | 1768 ft | 10 kts | 11° |
| 2026-04-29 23:05 | 33.55173 | 72.82474 | 1770 ft | 8 kts | 15° |
| 2026-04-29 23:05 | 33.55202 | 72.82509 | 1773 ft | 5 kts | 68° |
| 2026-04-29 23:05 | 33.55199 | 72.82542 | 1769 ft | 4 kts | 102° |
| 2026-04-29 23:06 | 33.55196 | 72.82561 | 1768 ft | 3 kts | 101° |
| 2026-04-29 23:06 | 33.55187 | 72.82620 | 1768 ft | 18 kts | 98° |
| 2026-04-29 23:06 | 33.55164 | 72.82784 | 1769 ft | 21 kts | 101° |
| 2026-04-29 23:06 | 33.55157 | 72.82928 | 1772 ft | 14 kts | 55° |
| 2026-04-29 23:07 | 33.55199 | 72.83015 | 1771 ft | 12 kts | 45° |
| 2026-04-29 23:07 | 33.55282 | 72.82985 | 1770 ft | 4 kts | 325° |
| 2026-04-29 23:07 | 33.55293 | 72.82976 | 1771 ft | 1 kts | 325° |
| 2026-04-29 23:07 | 33.55294 | 72.82975 | 1771 ft | 0 kts | 325° |